createdAt,value
2018-12-22T00:00:09.331Z,10.2777777778
2018-12-22T00:00:21.710Z,10.2777777778
2018-12-22T00:00:34.066Z,10.3333333333
2018-12-22T00:00:46.434Z,10.2777777778
2018-12-22T00:00:58.769Z,10.2777777778
2018-12-22T00:01:11.115Z,10.2777777778
2018-12-22T00:01:23.469Z,10.3333333333
2018-12-22T00:01:35.821Z,10.3333333333
2018-12-22T00:01:48.283Z,10.3333333333
2018-12-22T00:02:00.688Z,10.3333333333
2018-12-22T00:02:13.032Z,10.3333333333
2018-12-22T00:02:25.386Z,10.3333333333
2018-12-22T00:02:37.743Z,10.3333333333
2018-12-22T00:02:50.095Z,10.3333333333
2018-12-22T00:03:02.446Z,10.3333333333
2018-12-22T00:03:14.785Z,10.3333333333
2018-12-22T00:03:27.134Z,10.3888888889
2018-12-22T00:03:39.503Z,10.3333333333
2018-12-22T00:03:51.892Z,10.3333333333
2018-12-22T00:04:04.229Z,10.3333333333
2018-12-22T00:04:16.560Z,10.3888888889
2018-12-22T00:04:28.914Z,10.3333333333
2018-12-22T00:04:41.331Z,10.3888888889
2018-12-22T00:04:53.659Z,10.3888888889
2018-12-22T00:05:06.013Z,10.3333333333
2018-12-22T00:05:18.364Z,10.3888888889
2018-12-22T00:05:30.728Z,10.3888888889
2018-12-22T00:05:43.083Z,10.3888888889
2018-12-22T00:05:55.436Z,10.3888888889
2018-12-22T00:06:07.912Z,10.3888888889
2018-12-22T00:06:20.273Z,10.3888888889
2018-12-22T00:06:32.591Z,10.3888888889
2018-12-22T00:06:44.940Z,10.3888888889
2018-12-22T00:06:57.327Z,10.3888888889
2018-12-22T00:07:09.744Z,10.3888888889
2018-12-22T00:07:22.094Z,10.3888888889
2018-12-22T00:07:34.442Z,10.4444444444
2018-12-22T00:07:46.762Z,10.4444444444
2018-12-22T00:07:59.106Z,10.4444444444
2018-12-22T00:08:11.463Z,10.4444444444
2018-12-22T00:08:24.029Z,10.4444444444
2018-12-22T00:08:36.376Z,10.3888888889
2018-12-22T00:08:48.714Z,10.4444444444
2018-12-22T00:09:01.050Z,10.3888888889
2018-12-22T00:09:13.385Z,10.4444444444
2018-12-22T00:09:25.718Z,10.4444444444
2018-12-22T00:09:38.102Z,10.4444444444
2018-12-22T00:09:50.450Z,10.4444444444
2018-12-22T00:10:02.796Z,10.4444444444
2018-12-22T00:10:15.219Z,10.4444444444
2018-12-22T00:10:27.594Z,10.4444444444
2018-12-22T00:10:41.438Z,10.4444444444
2018-12-22T00:10:53.778Z,10.4444444444
2018-12-22T00:11:06.135Z,10.4444444444
2018-12-22T00:11:18.480Z,10.4444444444
2018-12-22T00:11:30.901Z,10.4444444444
2018-12-22T00:11:43.243Z,10.4444444444
2018-12-22T00:11:55.593Z,10.4444444444
2018-12-22T00:12:07.956Z,10.4444444444
2018-12-22T00:12:20.308Z,10.4444444444
2018-12-22T00:12:32.654Z,10.4444444444
2018-12-22T00:12:44.985Z,10.4444444444
2018-12-22T00:12:57.414Z,10.4444444444
2018-12-22T00:13:09.757Z,10.4444444444
2018-12-22T00:13:22.136Z,10.4444444444
2018-12-22T00:13:34.590Z,10.4444444444
2018-12-22T00:13:46.935Z,10.4444444444
2018-12-22T00:13:59.305Z,10.4444444444
2018-12-22T00:14:11.658Z,10.4444444444
2018-12-22T00:14:23.994Z,10.4444444444
2018-12-22T00:14:36.356Z,10.4444444444
2018-12-22T00:14:48.714Z,10.4444444444
2018-12-22T00:15:01.239Z,10.4444444444
2018-12-22T00:15:13.595Z,10.4444444444
2018-12-22T00:15:25.931Z,10.4444444444
2018-12-22T00:15:38.293Z,10.4444444444
2018-12-22T00:15:50.628Z,10.4444444444
2018-12-22T00:16:02.967Z,10.4444444444
2018-12-22T00:16:15.311Z,10.4444444444
2018-12-22T00:16:27.661Z,10.4444444444
2018-12-22T00:16:40.003Z,10.4444444444
2018-12-22T00:16:52.331Z,10.4444444444
2018-12-22T00:17:04.956Z,10.3888888889
2018-12-22T00:17:17.412Z,10.4444444444
2018-12-22T00:17:29.753Z,10.4444444444
2018-12-22T00:17:42.195Z,10.4444444444
2018-12-22T00:17:54.541Z,10.4444444444
2018-12-22T00:18:06.921Z,10.4444444444
2018-12-22T00:18:19.479Z,10.4444444444
2018-12-22T00:18:31.830Z,10.4444444444
2018-12-22T00:18:44.178Z,10.3888888889
2018-12-22T00:18:56.531Z,10.3888888889
2018-12-22T00:19:08.883Z,10.3888888889
2018-12-22T00:19:21.258Z,10.3888888889
2018-12-22T00:19:33.609Z,10.3888888889
2018-12-22T00:19:45.963Z,10.4444444444
2018-12-22T00:19:58.346Z,10.3888888889
2018-12-22T00:20:10.702Z,10.3888888889
2018-12-22T00:20:23.080Z,10.3888888889
2018-12-22T00:20:35.429Z,10.3888888889
2018-12-22T00:20:47.765Z,10.3888888889
2018-12-22T00:21:00.112Z,10.3888888889
2018-12-22T00:21:12.458Z,10.3888888889
2018-12-22T00:21:24.820Z,10.3888888889
2018-12-22T00:21:37.173Z,10.4444444444
2018-12-22T00:21:49.513Z,10.3888888889
2018-12-22T00:22:01.874Z,10.3888888889
2018-12-22T00:22:14.228Z,10.4444444444
2018-12-22T00:22:26.574Z,10.3888888889
2018-12-22T00:22:38.937Z,10.4444444444
2018-12-22T00:22:51.271Z,10.3888888889
2018-12-22T00:23:03.625Z,10.3888888889
2018-12-22T00:23:15.976Z,10.4444444444
2018-12-22T00:23:28.335Z,10.3888888889
2018-12-22T00:23:40.682Z,10.3888888889
2018-12-22T00:23:53.136Z,10.3888888889
2018-12-22T00:24:05.569Z,10.3888888889
2018-12-22T00:24:18.087Z,10.3888888889
2018-12-22T00:24:30.439Z,10.3888888889
2018-12-22T00:24:42.785Z,10.3888888889
2018-12-22T00:24:55.136Z,10.3888888889
2018-12-22T00:25:07.485Z,10.3888888889
2018-12-22T00:25:19.842Z,10.3333333333
2018-12-22T00:25:32.195Z,10.3333333333
2018-12-22T00:25:44.534Z,10.3333333333
2018-12-22T00:25:57.306Z,10.3333333333
2018-12-22T00:26:09.636Z,10.3333333333
2018-12-22T00:26:22.194Z,10.3333333333
2018-12-22T00:26:34.550Z,10.3333333333
2018-12-22T00:26:46.957Z,10.3888888889
2018-12-22T00:26:59.504Z,10.3888888889
2018-12-22T00:27:11.840Z,10.3333333333
2018-12-22T00:27:24.177Z,10.3333333333
2018-12-22T00:27:38.507Z,10.3333333333
2018-12-22T00:27:51.110Z,10.3333333333
2018-12-22T00:28:03.473Z,10.3333333333
2018-12-22T00:28:24.217Z,10.3333333333
2018-12-22T00:28:36.552Z,10.3333333333
2018-12-22T00:28:48.895Z,10.3333333333
2018-12-22T00:29:01.253Z,10.3333333333
2018-12-22T00:29:13.637Z,10.3333333333
2018-12-22T00:29:25.979Z,10.3333333333
2018-12-22T00:29:38.308Z,10.3333333333
2018-12-22T00:29:50.652Z,10.3333333333
2018-12-22T00:30:02.994Z,10.3333333333
2018-12-22T00:30:15.324Z,10.3333333333
2018-12-22T00:30:27.755Z,10.3333333333
2018-12-22T00:30:40.164Z,10.3333333333
2018-12-22T00:30:52.571Z,10.3333333333
2018-12-22T00:31:04.917Z,10.3333333333
2018-12-22T00:31:17.318Z,10.3333333333
2018-12-22T00:31:29.752Z,10.2777777778
2018-12-22T00:31:42.190Z,10.3333333333
2018-12-22T00:31:54.543Z,10.2777777778
2018-12-22T00:32:06.894Z,10.3333333333
2018-12-22T00:32:19.357Z,10.3333333333
2018-12-22T00:32:31.676Z,10.2777777778
2018-12-22T00:32:44.029Z,10.2777777778
2018-12-22T00:32:56.361Z,10.2777777778
2018-12-22T00:33:08.716Z,10.2777777778
2018-12-22T00:33:22.512Z,10.2777777778
2018-12-22T00:33:34.872Z,10.2777777778
2018-12-22T00:33:47.244Z,10.2777777778
2018-12-22T00:33:59.584Z,10.2777777778
2018-12-22T00:34:11.922Z,10.2777777778
2018-12-22T00:34:24.269Z,10.2777777778
2018-12-22T00:34:36.747Z,10.2777777778
2018-12-22T00:34:49.081Z,10.2777777778
2018-12-22T00:35:01.417Z,10.2777777778
2018-12-22T00:35:13.770Z,10.2777777778
2018-12-22T00:35:26.106Z,10.2777777778
2018-12-22T00:35:38.444Z,10.2777777778
2018-12-22T00:35:50.797Z,10.2777777778
2018-12-22T00:36:03.210Z,10.2777777778
2018-12-22T00:36:15.669Z,10.2777777778
2018-12-22T00:36:28.007Z,10.2777777778
2018-12-22T00:36:40.423Z,10.2777777778
2018-12-22T00:36:52.782Z,10.2777777778
2018-12-22T00:37:05.107Z,10.2222222222
2018-12-22T00:37:17.433Z,10.2777777778
2018-12-22T00:37:29.901Z,10.2777777778
2018-12-22T00:37:42.260Z,10.2222222222
2018-12-22T00:37:54.710Z,10.2222222222
2018-12-22T00:38:07.056Z,10.2222222222
2018-12-22T00:38:19.439Z,10.2777777778
2018-12-22T00:38:31.807Z,10.2777777778
2018-12-22T00:38:44.165Z,10.2222222222
2018-12-22T00:38:56.505Z,10.2222222222
2018-12-22T00:39:08.893Z,10.2222222222
2018-12-22T00:39:21.288Z,10.2222222222
2018-12-22T00:39:33.627Z,10.2222222222
2018-12-22T00:39:46.080Z,10.2222222222
2018-12-22T00:39:58.489Z,10.2222222222
2018-12-22T00:40:10.833Z,10.2222222222
2018-12-22T00:40:23.161Z,10.2222222222
2018-12-22T00:40:35.514Z,10.2222222222
2018-12-22T00:40:47.873Z,10.2222222222
2018-12-22T00:41:00.206Z,10.2222222222
2018-12-22T00:41:12.804Z,10.2222222222
2018-12-22T00:41:25.158Z,10.2222222222
2018-12-22T00:41:37.498Z,10.2222222222
2018-12-22T00:41:49.827Z,10.1666666667
2018-12-22T00:42:02.282Z,10.2222222222
2018-12-22T00:42:14.610Z,10.2222222222
2018-12-22T00:42:26.977Z,10.2222222222
2018-12-22T00:42:39.454Z,10.2222222222
2018-12-22T00:42:51.797Z,10.2222222222
2018-12-22T00:43:04.128Z,10.2222222222
2018-12-22T00:43:16.482Z,10.2222222222
2018-12-22T00:43:28.850Z,10.2222222222
2018-12-22T00:43:41.199Z,10.2222222222
2018-12-22T00:43:53.548Z,10.1666666667
2018-12-22T00:44:05.884Z,10.1666666667
2018-12-22T00:44:18.250Z,10.2222222222
2018-12-22T00:44:30.592Z,10.1666666667
2018-12-22T00:44:42.948Z,10.1666666667
2018-12-22T00:44:55.281Z,10.1666666667
2018-12-22T00:45:07.742Z,10.1666666667
2018-12-22T00:45:20.125Z,10.1666666667
2018-12-22T00:45:32.565Z,10.1666666667
2018-12-22T00:45:44.914Z,10.1666666667
2018-12-22T00:45:57.258Z,10.1666666667
2018-12-22T00:46:09.594Z,10.1666666667
2018-12-22T00:46:21.930Z,10.1666666667
2018-12-22T00:46:34.270Z,10.1666666667
2018-12-22T00:46:46.606Z,10.1666666667
2018-12-22T00:46:59.026Z,10.1666666667
2018-12-22T00:47:11.381Z,10.1666666667
2018-12-22T00:47:23.713Z,10.1666666667
2018-12-22T00:47:36.049Z,10.1666666667
2018-12-22T00:47:48.395Z,10.1666666667
2018-12-22T00:48:00.754Z,10.1666666667
2018-12-22T00:48:13.114Z,10.1666666667
2018-12-22T00:48:25.471Z,10.1666666667
2018-12-22T00:48:37.818Z,10.1666666667
2018-12-22T00:48:50.175Z,10.1666666667
2018-12-22T00:49:02.540Z,10.1666666667
2018-12-22T00:49:14.884Z,10.1111111111
2018-12-22T00:49:27.465Z,10.1666666667
2018-12-22T00:49:39.801Z,10.1666666667
2018-12-22T00:49:52.138Z,10.1111111111
2018-12-22T00:50:04.693Z,10.1666666667
2018-12-22T00:50:17.036Z,10.1666666667
2018-12-22T00:50:29.384Z,10.1666666667
2018-12-22T00:50:41.742Z,10.1666666667
2018-12-22T00:50:54.077Z,10.1666666667
2018-12-22T00:51:06.416Z,10.1666666667
2018-12-22T00:51:18.827Z,10.1111111111
2018-12-22T00:51:31.186Z,10.1111111111
2018-12-22T00:51:43.549Z,10.1111111111
2018-12-22T00:51:55.890Z,10.1666666667
2018-12-22T00:52:08.227Z,10.1111111111
2018-12-22T00:52:20.745Z,10.1111111111
2018-12-22T00:52:33.492Z,10.1666666667
2018-12-22T00:52:45.829Z,10.1666666667
2018-12-22T00:52:58.172Z,10.1111111111
2018-12-22T00:53:10.604Z,10.1111111111
2018-12-22T00:53:22.967Z,10.1666666667
2018-12-22T00:53:35.329Z,10.1111111111
2018-12-22T00:53:47.730Z,10.1111111111
2018-12-22T00:54:00.071Z,10.1111111111
2018-12-22T00:54:12.522Z,10.1111111111
2018-12-22T00:54:27.072Z,10.1111111111
2018-12-22T00:54:39.412Z,10.1111111111
2018-12-22T00:54:51.768Z,10.1111111111
2018-12-22T00:55:04.357Z,10.1111111111
2018-12-22T00:55:16.712Z,10.1111111111
2018-12-22T00:55:29.040Z,10.1111111111
2018-12-22T00:55:41.371Z,10.1111111111
2018-12-22T00:55:53.717Z,10.1111111111
2018-12-22T00:56:06.049Z,10.1111111111
2018-12-22T00:56:18.396Z,10.1111111111
2018-12-22T00:56:30.808Z,10.1111111111
2018-12-22T00:56:43.168Z,10.1111111111
2018-12-22T00:56:55.724Z,10.1111111111
2018-12-22T00:57:08.137Z,10.1111111111
2018-12-22T00:57:20.477Z,10.1111111111
2018-12-22T00:57:32.816Z,10.1111111111
2018-12-22T00:57:45.150Z,10.0555555556
2018-12-22T00:57:57.497Z,10.0555555556
2018-12-22T00:58:09.891Z,10.1111111111
2018-12-22T00:58:30.480Z,10.1111111111
2018-12-22T00:58:42.993Z,10.0555555556
2018-12-22T00:58:55.353Z,10.1111111111
2018-12-22T00:59:07.697Z,10.1111111111
2018-12-22T00:59:20.034Z,10.1111111111
2018-12-22T00:59:32.367Z,10.0555555556
2018-12-22T00:59:44.717Z,10.0555555556
2018-12-22T00:59:57.062Z,10.0555555556
2018-12-22T01:00:09.422Z,10.1111111111
2018-12-22T01:00:24.086Z,10.1111111111
2018-12-22T01:00:36.450Z,10.0555555556
2018-12-22T01:00:48.948Z,10.0555555556
2018-12-22T01:01:01.301Z,10.0555555556
2018-12-22T01:01:13.701Z,10.0555555556
2018-12-22T01:01:26.041Z,10.1111111111
2018-12-22T01:01:38.378Z,10.1111111111
2018-12-22T01:01:50.757Z,10.0555555556
2018-12-22T01:02:03.118Z,10.0555555556
2018-12-22T01:02:15.502Z,10.0555555556
2018-12-22T01:02:27.866Z,10.0555555556
2018-12-22T01:02:40.216Z,10.0555555556
2018-12-22T01:02:52.566Z,10.0555555556
2018-12-22T01:03:04.962Z,10.0555555556
2018-12-22T01:03:17.311Z,10.0555555556
2018-12-22T01:03:29.672Z,10.0555555556
2018-12-22T01:03:42.046Z,10.0555555556
2018-12-22T01:03:54.384Z,10.0555555556
2018-12-22T01:04:06.767Z,10.0555555556
2018-12-22T01:04:19.118Z,10.0555555556
2018-12-22T01:04:31.455Z,10.0555555556
2018-12-22T01:04:43.892Z,10.0555555556
2018-12-22T01:04:56.247Z,10.0555555556
2018-12-22T01:05:08.597Z,10.0555555556
2018-12-22T01:05:20.934Z,10.0555555556
2018-12-22T01:05:33.284Z,10.0555555556
2018-12-22T01:05:45.634Z,10.0555555556
2018-12-22T01:05:57.981Z,10.0555555556
2018-12-22T01:06:10.337Z,10.0555555556
2018-12-22T01:06:22.676Z,10.0555555556
2018-12-22T01:06:35.128Z,10
2018-12-22T01:06:47.489Z,10.0555555556
2018-12-22T01:07:01.774Z,10
2018-12-22T01:07:14.171Z,10.0555555556
2018-12-22T01:07:26.501Z,10.0555555556
2018-12-22T01:07:38.845Z,10.0555555556
2018-12-22T01:07:51.212Z,10.0555555556
2018-12-22T01:08:03.574Z,10
2018-12-22T01:08:16.036Z,10.0555555556
2018-12-22T01:08:28.505Z,10.0555555556
2018-12-22T01:08:40.866Z,10.0555555556
2018-12-22T01:08:53.217Z,10.0555555556
2018-12-22T01:09:05.560Z,10.0555555556
2018-12-22T01:09:17.914Z,10
2018-12-22T01:09:30.266Z,10
2018-12-22T01:09:42.720Z,10
2018-12-22T01:09:55.080Z,10
2018-12-22T01:10:07.454Z,10
2018-12-22T01:10:19.802Z,10
2018-12-22T01:10:32.132Z,10
2018-12-22T01:10:44.472Z,10
2018-12-22T01:10:56.828Z,10
2018-12-22T01:11:09.166Z,10
2018-12-22T01:11:21.501Z,10
2018-12-22T01:11:33.839Z,10
2018-12-22T01:11:46.278Z,10
2018-12-22T01:11:58.755Z,10
2018-12-22T01:12:11.190Z,10
2018-12-22T01:12:23.537Z,10
2018-12-22T01:12:35.949Z,10.0555555556
2018-12-22T01:12:48.323Z,10
2018-12-22T01:13:00.670Z,10
2018-12-22T01:13:13.036Z,10
2018-12-22T01:13:25.437Z,10
2018-12-22T01:13:38.077Z,10
2018-12-22T01:13:50.457Z,10
2018-12-22T01:14:02.905Z,10
2018-12-22T01:14:15.250Z,10
2018-12-22T01:14:27.591Z,10
2018-12-22T01:14:39.950Z,10
2018-12-22T01:14:52.479Z,10
2018-12-22T01:15:05.003Z,10
2018-12-22T01:15:17.344Z,10
2018-12-22T01:15:29.691Z,10
2018-12-22T01:15:42.056Z,10
2018-12-22T01:15:54.513Z,10
2018-12-22T01:16:06.961Z,10
2018-12-22T01:16:19.317Z,10
2018-12-22T01:16:31.650Z,10
2018-12-22T01:16:45.940Z,10
2018-12-22T01:16:58.574Z,10
2018-12-22T01:17:10.952Z,10
2018-12-22T01:17:23.412Z,10
2018-12-22T01:17:35.871Z,10
2018-12-22T01:17:48.210Z,10
2018-12-22T01:18:00.575Z,10
2018-12-22T01:18:13.058Z,10
2018-12-22T01:18:25.494Z,10
2018-12-22T01:18:37.845Z,10
2018-12-22T01:18:50.182Z,10
2018-12-22T01:19:02.539Z,10
2018-12-22T01:19:14.899Z,10
2018-12-22T01:19:27.262Z,10
2018-12-22T01:19:39.728Z,10.0555555556
2018-12-22T01:19:52.109Z,10
2018-12-22T01:20:04.460Z,10
2018-12-22T01:20:16.914Z,10
2018-12-22T01:20:29.297Z,10
2018-12-22T01:20:41.650Z,10
2018-12-22T01:20:53.982Z,10
2018-12-22T01:21:06.348Z,10
2018-12-22T01:21:18.690Z,10
2018-12-22T01:21:31.019Z,10
2018-12-22T01:21:43.356Z,10
2018-12-22T01:21:55.784Z,10
2018-12-22T01:22:08.117Z,10
2018-12-22T01:22:20.450Z,9.94444444444
2018-12-22T01:22:32.874Z,10
2018-12-22T01:22:45.232Z,10
2018-12-22T01:22:57.574Z,10
2018-12-22T01:23:09.921Z,10
2018-12-22T01:23:22.254Z,10.0555555556
2018-12-22T01:23:34.612Z,10.0555555556
2018-12-22T01:23:46.938Z,10
2018-12-22T01:23:59.310Z,10
2018-12-22T01:24:11.640Z,10
2018-12-22T01:24:24.157Z,10.0555555556
2018-12-22T01:24:36.507Z,10
2018-12-22T01:24:48.847Z,10
2018-12-22T01:25:01.218Z,10.0555555556
2018-12-22T01:25:13.605Z,10.0555555556
2018-12-22T01:25:25.959Z,10
2018-12-22T01:25:38.319Z,10
2018-12-22T01:25:50.788Z,10.0555555556
2018-12-22T01:26:03.244Z,10.0555555556
2018-12-22T01:26:15.611Z,10.0555555556
2018-12-22T01:26:27.991Z,10.0555555556
2018-12-22T01:26:40.500Z,10.0555555556
2018-12-22T01:26:53.017Z,10.0555555556
2018-12-22T01:27:05.394Z,10.0555555556
2018-12-22T01:27:17.821Z,10.0555555556
2018-12-22T01:27:30.157Z,10.0555555556
2018-12-22T01:27:42.524Z,10.0555555556
2018-12-22T01:27:54.864Z,10.1111111111
2018-12-22T01:28:07.234Z,10.1111111111
2018-12-22T01:28:19.681Z,10.1111111111
2018-12-22T01:28:40.491Z,10.1111111111
2018-12-22T01:28:52.836Z,10.1111111111
2018-12-22T01:29:05.178Z,10.1111111111
2018-12-22T01:29:17.554Z,10.1111111111
2018-12-22T01:29:29.913Z,10.1111111111
2018-12-22T01:29:42.259Z,10.1666666667
2018-12-22T01:29:54.601Z,10.1666666667
2018-12-22T01:30:06.942Z,10.1666666667
2018-12-22T01:30:19.293Z,10.1111111111
2018-12-22T01:30:31.890Z,10.1666666667
2018-12-22T01:30:44.244Z,10.1666666667
2018-12-22T01:30:56.589Z,10.1666666667
2018-12-22T01:31:08.937Z,10.1666666667
2018-12-22T01:31:21.281Z,10.1666666667
2018-12-22T01:31:33.629Z,10.1666666667
2018-12-22T01:31:46.076Z,10.1666666667
2018-12-22T01:31:58.408Z,10.1666666667
2018-12-22T01:32:10.866Z,10.1666666667
2018-12-22T01:32:23.221Z,10.1666666667
2018-12-22T01:32:35.580Z,10.1666666667
2018-12-22T01:32:47.925Z,10.1666666667
2018-12-22T01:33:00.281Z,10.1666666667
2018-12-22T01:33:12.624Z,10.1666666667
2018-12-22T01:33:24.974Z,10.1666666667
2018-12-22T01:33:37.320Z,10.1666666667
2018-12-22T01:33:49.678Z,10.1666666667
2018-12-22T01:34:02.012Z,10.1666666667
2018-12-22T01:34:14.400Z,10.1666666667
2018-12-22T01:34:26.736Z,10.1666666667
2018-12-22T01:34:39.335Z,10.1666666667
2018-12-22T01:34:51.687Z,10.2222222222
2018-12-22T01:35:04.212Z,10.1666666667
2018-12-22T01:35:16.546Z,10.1666666667
2018-12-22T01:35:28.894Z,10.1666666667
2018-12-22T01:35:41.240Z,10.1666666667
2018-12-22T01:35:53.579Z,10.1666666667
2018-12-22T01:36:06.029Z,10.1666666667
2018-12-22T01:36:18.361Z,10.1666666667
2018-12-22T01:36:30.862Z,10.1666666667
2018-12-22T01:36:43.209Z,10.1666666667
2018-12-22T01:36:55.622Z,10.1666666667
2018-12-22T01:37:07.955Z,10.1666666667
2018-12-22T01:37:20.285Z,10.1666666667
2018-12-22T01:37:32.630Z,10.1666666667
2018-12-22T01:37:44.976Z,10.1666666667
2018-12-22T01:37:57.308Z,10.1666666667
2018-12-22T01:38:09.633Z,10.1666666667
2018-12-22T01:38:21.980Z,10.1666666667
2018-12-22T01:38:34.308Z,10.1666666667
2018-12-22T01:38:46.645Z,10.1666666667
2018-12-22T01:38:58.976Z,10.1666666667
2018-12-22T01:39:11.493Z,10.1666666667
2018-12-22T01:39:23.826Z,10.1666666667
2018-12-22T01:39:36.267Z,10.1666666667
2018-12-22T01:39:48.605Z,10.1666666667
2018-12-22T01:40:01.162Z,10.1111111111
2018-12-22T01:40:13.501Z,10.1666666667
2018-12-22T01:40:25.849Z,10.1666666667
2018-12-22T01:40:38.197Z,10.1111111111
2018-12-22T01:40:50.526Z,10.1111111111
2018-12-22T01:41:02.868Z,10.1111111111
2018-12-22T01:41:15.451Z,10.1666666667
2018-12-22T01:41:27.800Z,10.1111111111
2018-12-22T01:41:40.159Z,10.1111111111
2018-12-22T01:41:52.517Z,10.1111111111
2018-12-22T01:42:04.859Z,10.1111111111
2018-12-22T01:42:17.202Z,10.1111111111
2018-12-22T01:42:29.560Z,10.1111111111
2018-12-22T01:42:41.903Z,10.1111111111
2018-12-22T01:42:54.245Z,10.1111111111
2018-12-22T01:43:06.598Z,10.1111111111
2018-12-22T01:43:18.979Z,10.1111111111
2018-12-22T01:43:31.313Z,10.1111111111
2018-12-22T01:43:43.648Z,10.1111111111
2018-12-22T01:43:56.003Z,10.1111111111
2018-12-22T01:44:08.351Z,10.0555555556
2018-12-22T01:44:20.684Z,10.1111111111
2018-12-22T01:44:33.086Z,10.1111111111
2018-12-22T01:44:45.447Z,10.1111111111
2018-12-22T01:44:57.796Z,10.0555555556
2018-12-22T01:45:10.154Z,10.0555555556
2018-12-22T01:45:22.496Z,10.0555555556
2018-12-22T01:45:34.997Z,10.0555555556
2018-12-22T01:45:47.337Z,10.1111111111
2018-12-22T01:45:59.898Z,10.0555555556
2018-12-22T01:46:12.239Z,10.0555555556
2018-12-22T01:46:24.572Z,10.0555555556
2018-12-22T01:46:36.910Z,10.0555555556
2018-12-22T01:46:49.250Z,10.0555555556
2018-12-22T01:47:01.607Z,10.0555555556
2018-12-22T01:47:13.941Z,10.0555555556
2018-12-22T01:47:26.289Z,10.0555555556
2018-12-22T01:47:38.642Z,10.0555555556
2018-12-22T01:47:51.022Z,10.0555555556
2018-12-22T01:48:03.379Z,10.0555555556
2018-12-22T01:48:15.709Z,10.0555555556
2018-12-22T01:48:28.051Z,10.0555555556
2018-12-22T01:48:40.399Z,10
2018-12-22T01:48:52.735Z,10
2018-12-22T01:49:05.094Z,10
2018-12-22T01:49:17.578Z,10.0555555556
2018-12-22T01:49:32.232Z,10
2018-12-22T01:49:44.631Z,10
2018-12-22T01:49:56.975Z,10
2018-12-22T01:50:09.480Z,10
2018-12-22T01:50:21.845Z,10
2018-12-22T01:50:34.192Z,10
2018-12-22T01:50:46.551Z,10
2018-12-22T01:50:58.904Z,10
2018-12-22T01:51:11.357Z,10
2018-12-22T01:51:23.722Z,9.94444444444
2018-12-22T01:51:36.069Z,9.94444444444
2018-12-22T01:51:48.416Z,9.94444444444
2018-12-22T01:52:00.881Z,9.94444444444
2018-12-22T01:52:13.250Z,9.94444444444
2018-12-22T01:52:25.666Z,9.94444444444
2018-12-22T01:52:38.105Z,9.94444444444
2018-12-22T01:52:50.444Z,9.94444444444
2018-12-22T01:53:02.786Z,9.88888888889
2018-12-22T01:53:15.122Z,9.88888888889
2018-12-22T01:53:27.452Z,9.88888888889
2018-12-22T01:53:39.803Z,9.88888888889
2018-12-22T01:53:52.167Z,9.88888888889
2018-12-22T01:54:04.574Z,9.88888888889
2018-12-22T01:54:16.910Z,9.88888888889
2018-12-22T01:54:29.356Z,9.88888888889
2018-12-22T01:54:41.706Z,9.88888888889
2018-12-22T01:54:54.056Z,9.88888888889
2018-12-22T01:55:06.621Z,9.88888888889
2018-12-22T01:55:19.076Z,9.83333333333
2018-12-22T01:55:31.432Z,9.88888888889
2018-12-22T01:55:43.766Z,9.83333333333
2018-12-22T01:55:56.099Z,9.83333333333
2018-12-22T01:56:08.425Z,9.83333333333
2018-12-22T01:56:20.781Z,9.83333333333
2018-12-22T01:56:33.221Z,9.83333333333
2018-12-22T01:56:45.549Z,9.83333333333
2018-12-22T01:56:58.210Z,9.83333333333
2018-12-22T01:57:10.544Z,9.83333333333
2018-12-22T01:57:22.895Z,9.83333333333
2018-12-22T01:57:35.231Z,9.83333333333
2018-12-22T01:57:47.559Z,9.83333333333
2018-12-22T01:57:59.916Z,9.83333333333
2018-12-22T01:58:12.245Z,9.83333333333
2018-12-22T01:58:24.587Z,9.83333333333
2018-12-22T01:58:36.942Z,9.77777777778
2018-12-22T01:58:57.932Z,9.77777777778
2018-12-22T01:59:10.287Z,9.83333333333
2018-12-22T01:59:22.650Z,9.83333333333
2018-12-22T01:59:35.007Z,9.77777777778
2018-12-22T01:59:47.378Z,9.83333333333
2018-12-22T01:59:59.709Z,9.83333333333
2018-12-22T02:00:12.088Z,9.77777777778
2018-12-22T02:00:24.437Z,9.77777777778
2018-12-22T02:00:36.817Z,9.77777777778
2018-12-22T02:00:49.166Z,9.77777777778
2018-12-22T02:01:01.523Z,9.77777777778
2018-12-22T02:01:13.874Z,9.77777777778
2018-12-22T02:01:26.226Z,9.77777777778
2018-12-22T02:01:38.576Z,9.77777777778
2018-12-22T02:01:50.953Z,9.77777777778
2018-12-22T02:02:03.319Z,9.77777777778
2018-12-22T02:02:15.659Z,9.77777777778
2018-12-22T02:02:28.016Z,9.77777777778
2018-12-22T02:02:40.351Z,9.77777777778
2018-12-22T02:02:52.709Z,9.77777777778
2018-12-22T02:03:05.083Z,9.77777777778
2018-12-22T02:03:17.430Z,9.77777777778
2018-12-22T02:03:29.782Z,9.77777777778
2018-12-22T02:03:42.123Z,9.72222222222
2018-12-22T02:03:54.616Z,9.72222222222
2018-12-22T02:04:06.960Z,9.77777777778
2018-12-22T02:04:19.311Z,9.77777777778
2018-12-22T02:04:31.667Z,9.77777777778
2018-12-22T02:04:44.138Z,9.77777777778
2018-12-22T02:04:56.491Z,9.77777777778
2018-12-22T02:05:08.833Z,9.72222222222
2018-12-22T02:05:21.182Z,9.77777777778
2018-12-22T02:05:33.602Z,9.77777777778
2018-12-22T02:05:45.949Z,9.77777777778
2018-12-22T02:05:58.300Z,9.77777777778
2018-12-22T02:06:10.651Z,9.77777777778
2018-12-22T02:06:23.098Z,9.72222222222
2018-12-22T02:06:35.484Z,9.72222222222
2018-12-22T02:06:47.829Z,9.72222222222
2018-12-22T02:07:00.285Z,9.77777777778
2018-12-22T02:07:12.636Z,9.77777777778
2018-12-22T02:07:24.981Z,9.77777777778
2018-12-22T02:07:37.316Z,9.77777777778
2018-12-22T02:07:49.675Z,9.77777777778
2018-12-22T02:08:02.017Z,9.77777777778
2018-12-22T02:08:14.359Z,9.77777777778
2018-12-22T02:08:26.856Z,9.72222222222
2018-12-22T02:08:39.186Z,9.72222222222
2018-12-22T02:08:51.517Z,9.77777777778
2018-12-22T02:09:03.875Z,9.77777777778
2018-12-22T02:09:16.254Z,9.77777777778
2018-12-22T02:09:28.614Z,9.77777777778
2018-12-22T02:09:40.953Z,9.72222222222
2018-12-22T02:09:53.305Z,9.77777777778
2018-12-22T02:10:05.764Z,9.77777777778
2018-12-22T02:10:18.119Z,9.77777777778
2018-12-22T02:10:30.464Z,9.72222222222
2018-12-22T02:10:42.800Z,9.77777777778
2018-12-22T02:10:55.149Z,9.77777777778
2018-12-22T02:11:07.495Z,9.77777777778
2018-12-22T02:11:19.828Z,9.72222222222
2018-12-22T02:11:32.165Z,9.72222222222
2018-12-22T02:11:44.505Z,9.72222222222
2018-12-22T02:11:56.859Z,9.77777777778
2018-12-22T02:12:09.202Z,9.72222222222
2018-12-22T02:12:21.542Z,9.72222222222
2018-12-22T02:12:33.886Z,9.77777777778